sensor_id;sensor_type;location;lat;lon;timestamp;P1;durP1;ratioP1;P2;durP2;ratioP2
18340;SDS011;9296;48.084;16.352;2024-01-27T00:00:13;1.80;;;0.80;;
18340;SDS011;9296;48.084;16.352;2024-01-27T00:08:14;0.80;;;0.40;;
18340;SDS011;9296;48.084;16.352;2024-01-27T00:16:15;0.55;;;0.30;;
18340;SDS011;9296;48.084;16.352;2024-01-27T00:37:02;0.40;;;0.30;;
18340;SDS011;9296;48.084;16.352;2024-01-27T00:39:31;0.77;;;0.22;;
18340;SDS011;9296;48.084;16.352;2024-01-27T00:42:10;0.95;;;0.28;;
18340;SDS011;9296;48.084;16.352;2024-01-27T00:45:11;1.92;;;0.32;;
18340;SDS011;9296;48.084;16.352;2024-01-27T00:48:12;0.75;;;0.40;;
18340;SDS011;9296;48.084;16.352;2024-01-27T01:12:35;1.63;;;0.35;;
18340;SDS011;9296;48.084;16.352;2024-01-27T01:23:11;1.52;;;0.50;;
18340;SDS011;9296;48.084;16.352;2024-01-27T01:37:16;1.27;;;0.50;;
18340;SDS011;9296;48.084;16.352;2024-01-27T01:42:19;2.35;;;0.70;;
18340;SDS011;9296;48.084;16.352;2024-01-27T01:55:23;1.80;;;0.60;;
18340;SDS011;9296;48.084;16.352;2024-01-27T02:01:27;2.17;;;0.77;;
18340;SDS011;9296;48.084;16.352;2024-01-27T02:04:08;2.20;;;0.70;;
18340;SDS011;9296;48.084;16.352;2024-01-27T02:06:55;2.67;;;0.93;;
18340;SDS011;9296;48.084;16.352;2024-01-27T02:25:48;2.78;;;0.70;;
18340;SDS011;9296;48.084;16.352;2024-01-27T02:36:18;1.63;;;0.60;;
18340;SDS011;9296;48.084;16.352;2024-01-27T02:39:28;2.13;;;0.88;;
18340;SDS011;9296;48.084;16.352;2024-01-27T02:45:17;3.00;;;0.80;;
18340;SDS011;9296;48.084;16.352;2024-01-27T02:50:44;2.83;;;0.90;;
18340;SDS011;9296;48.084;16.352;2024-01-27T02:53:14;1.73;;;0.82;;
18340;SDS011;9296;48.084;16.352;2024-01-27T02:56:01;2.47;;;0.80;;
18340;SDS011;9296;48.084;16.352;2024-01-27T03:17:25;3.03;;;1.00;;
18340;SDS011;9296;48.084;16.352;2024-01-27T03:19:55;1.63;;;1.20;;
18340;SDS011;9296;48.084;16.352;2024-01-27T03:22:43;5.15;;;1.50;;
18340;SDS011;9296;48.084;16.352;2024-01-27T03:25:16;3.65;;;1.60;;
18340;SDS011;9296;48.084;16.352;2024-01-27T03:30:28;1.98;;;1.35;;
18340;SDS011;9296;48.084;16.352;2024-01-27T03:32:57;3.35;;;1.50;;
18340;SDS011;9296;48.084;16.352;2024-01-27T03:40:36;4.13;;;1.90;;
18340;SDS011;9296;48.084;16.352;2024-01-27T03:43:07;4.18;;;1.40;;
18340;SDS011;9296;48.084;16.352;2024-01-27T03:46:07;3.08;;;1.13;;
18340;SDS011;9296;48.084;16.352;2024-01-27T03:59:31;2.67;;;1.25;;
18340;SDS011;9296;48.084;16.352;2024-01-27T04:02:13;3.72;;;1.45;;
18340;SDS011;9296;48.084;16.352;2024-01-27T04:10:14;4.65;;;1.50;;
18340;SDS011;9296;48.084;16.352;2024-01-27T04:26:16;4.40;;;1.67;;
18340;SDS011;9296;48.084;16.352;2024-01-27T04:33:55;3.25;;;1.40;;
18340;SDS011;9296;48.084;16.352;2024-01-27T04:36:26;4.88;;;1.55;;
18340;SDS011;9296;48.084;16.352;2024-01-27T04:38:54;1.83;;;1.45;;
18340;SDS011;9296;48.084;16.352;2024-01-27T04:41:25;3.40;;;1.50;;
18340;SDS011;9296;48.084;16.352;2024-01-27T04:43:56;3.63;;;1.75;;
18340;SDS011;9296;48.084;16.352;2024-01-27T04:46:24;3.45;;;1.45;;
18340;SDS011;9296;48.084;16.352;2024-01-27T05:08:33;3.60;;;1.20;;
18340;SDS011;9296;48.084;16.352;2024-01-27T05:11:24;6.38;;;1.40;;
18340;SDS011;9296;48.084;16.352;2024-01-27T05:16:54;4.00;;;1.17;;
18340;SDS011;9296;48.084;16.352;2024-01-27T05:19:22;6.75;;;1.30;;
18340;SDS011;9296;48.084;16.352;2024-01-27T05:30:09;5.13;;;1.60;;
18340;SDS011;9296;48.084;16.352;2024-01-27T05:37:51;5.57;;;1.27;;
18340;SDS011;9296;48.084;16.352;2024-01-27T05:57:12;3.78;;;1.40;;
18340;SDS011;9296;48.084;16.352;2024-01-27T05:59:59;2.13;;;1.27;;
18340;SDS011;9296;48.084;16.352;2024-01-27T06:05:16;3.60;;;1.50;;
18340;SDS011;9296;48.084;16.352;2024-01-27T06:07:56;4.72;;;1.42;;
18340;SDS011;9296;48.084;16.352;2024-01-27T06:10:40;5.13;;;1.40;;
18340;SDS011;9296;48.084;16.352;2024-01-27T06:18:36;3.90;;;1.60;;
18340;SDS011;9296;48.084;16.352;2024-01-27T06:21:07;4.95;;;1.52;;
18340;SDS011;9296;48.084;16.352;2024-01-27T06:23:38;4.82;;;1.48;;
18340;SDS011;9296;48.084;16.352;2024-01-27T06:26:20;3.65;;;1.55;;
18340;SDS011;9296;48.084;16.352;2024-01-27T06:37:33;3.83;;;1.85;;
18340;SDS011;9296;48.084;16.352;2024-01-27T06:46:00;3.95;;;1.60;;
18340;SDS011;9296;48.084;16.352;2024-01-27T06:48:34;2.75;;;1.30;;
18340;SDS011;9296;48.084;16.352;2024-01-27T07:19:16;2.88;;;1.60;;
18340;SDS011;9296;48.084;16.352;2024-01-27T07:21:45;4.70;;;1.90;;
18340;SDS011;9296;48.084;16.352;2024-01-27T07:29:53;3.38;;;1.80;;
18340;SDS011;9296;48.084;16.352;2024-01-27T07:32:20;4.95;;;1.88;;
18340;SDS011;9296;48.084;16.352;2024-01-27T07:37:26;4.53;;;1.92;;
18340;SDS011;9296;48.084;16.352;2024-01-27T07:39:58;5.25;;;1.65;;
18340;SDS011;9296;48.084;16.352;2024-01-27T07:42:25;5.95;;;1.60;;
18340;SDS011;9296;48.084;16.352;2024-01-27T07:45:04;2.70;;;1.63;;
18340;SDS011;9296;48.084;16.352;2024-01-27T07:47:34;4.07;;;1.60;;
18340;SDS011;9296;48.084;16.352;2024-01-27T07:50:01;3.72;;;1.92;;
18340;SDS011;9296;48.084;16.352;2024-01-27T07:52:30;5.93;;;1.95;;
18340;SDS011;9296;48.084;16.352;2024-01-27T07:54:58;3.72;;;1.52;;
18340;SDS011;9296;48.084;16.352;2024-01-27T08:00:01;3.25;;;1.70;;
18340;SDS011;9296;48.084;16.352;2024-01-27T08:05:07;4.05;;;1.98;;
18340;SDS011;9296;48.084;16.352;2024-01-27T08:10:04;6.55;;;2.13;;
18340;SDS011;9296;48.084;16.352;2024-01-27T08:15:28;4.63;;;2.05;;
18340;SDS011;9296;48.084;16.352;2024-01-27T08:17:58;8.75;;;2.28;;
18340;SDS011;9296;48.084;16.352;2024-01-27T08:20:25;3.67;;;1.92;;
18340;SDS011;9296;48.084;16.352;2024-01-27T08:22:52;5.93;;;1.98;;
18340;SDS011;9296;48.084;16.352;2024-01-27T08:25:24;5.28;;;1.80;;
18340;SDS011;9296;48.084;16.352;2024-01-27T08:27:55;4.93;;;1.80;;
18340;SDS011;9296;48.084;16.352;2024-01-27T08:30:49;7.72;;;2.33;;
18340;SDS011;9296;48.084;16.352;2024-01-27T08:33:20;4.50;;;1.85;;
18340;SDS011;9296;48.084;16.352;2024-01-27T08:35:47;8.80;;;2.03;;
18340;SDS011;9296;48.084;16.352;2024-01-27T08:38:14;4.97;;;2.00;;
18340;SDS011;9296;48.084;16.352;2024-01-27T08:40:45;5.30;;;2.00;;
18340;SDS011;9296;48.084;16.352;2024-01-27T08:43:12;6.38;;;1.80;;
18340;SDS011;9296;48.084;16.352;2024-01-27T08:45:39;5.07;;;1.92;;
18340;SDS011;9296;48.084;16.352;2024-01-27T08:48:08;5.63;;;2.15;;
18340;SDS011;9296;48.084;16.352;2024-01-27T10:14:37;5.85;;;1.85;;
18340;SDS011;9296;48.084;16.352;2024-01-27T10:17:25;5.00;;;2.20;;
18340;SDS011;9296;48.084;16.352;2024-01-27T10:20:04;4.55;;;1.90;;
18340;SDS011;9296;48.084;16.352;2024-01-27T10:22:56;4.78;;;2.00;;
18340;SDS011;9296;48.084;16.352;2024-01-27T10:25:24;6.47;;;2.28;;
18340;SDS011;9296;48.084;16.352;2024-01-27T10:36:44;5.03;;;1.90;;
18340;SDS011;9296;48.084;16.352;2024-01-27T10:39:26;4.75;;;1.95;;
18340;SDS011;9296;48.084;16.352;2024-01-27T10:41:53;5.07;;;2.40;;
18340;SDS011;9296;48.084;16.352;2024-01-27T10:44:20;4.18;;;1.90;;
18340;SDS011;9296;48.084;16.352;2024-01-27T10:46:48;6.15;;;2.10;;
18340;SDS011;9296;48.084;16.352;2024-01-27T10:49:16;4.65;;;1.98;;
18340;SDS011;9296;48.084;16.352;2024-01-27T10:51:45;5.03;;;2.17;;
18340;SDS011;9296;48.084;16.352;2024-01-27T10:54:14;5.65;;;2.15;;
18340;SDS011;9296;48.084;16.352;2024-01-27T10:56:44;4.38;;;1.90;;
18340;SDS011;9296;48.084;16.352;2024-01-27T10:59:11;4.38;;;1.90;;
18340;SDS011;9296;48.084;16.352;2024-01-27T11:01:41;4.85;;;1.98;;
18340;SDS011;9296;48.084;16.352;2024-01-27T11:04:08;4.03;;;1.73;;
18340;SDS011;9296;48.084;16.352;2024-01-27T11:06:39;4.43;;;2.10;;
18340;SDS011;9296;48.084;16.352;2024-01-27T11:09:11;3.70;;;2.00;;
18340;SDS011;9296;48.084;16.352;2024-01-27T11:11:43;3.95;;;2.03;;
18340;SDS011;9296;48.084;16.352;2024-01-27T11:14:11;3.78;;;1.73;;
18340;SDS011;9296;48.084;16.352;2024-01-27T11:16:38;4.90;;;1.85;;
18340;SDS011;9296;48.084;16.352;2024-01-27T11:19:11;3.75;;;1.80;;
18340;SDS011;9296;48.084;16.352;2024-01-27T11:21:38;4.72;;;1.95;;
18340;SDS011;9296;48.084;16.352;2024-01-27T11:24:16;3.33;;;1.90;;
18340;SDS011;9296;48.084;16.352;2024-01-27T11:26:43;5.22;;;2.03;;
18340;SDS011;9296;48.084;16.352;2024-01-27T11:29:11;3.45;;;1.88;;
18340;SDS011;9296;48.084;16.352;2024-01-27T11:31:44;5.18;;;1.80;;
18340;SDS011;9296;48.084;16.352;2024-01-27T11:34:14;4.32;;;2.00;;
18340;SDS011;9296;48.084;16.352;2024-01-27T11:39:30;4.38;;;1.65;;
18340;SDS011;9296;48.084;16.352;2024-01-27T11:42:05;4.07;;;1.92;;
18340;SDS011;9296;48.084;16.352;2024-01-27T11:44:35;5.97;;;1.75;;
18340;SDS011;9296;48.084;16.352;2024-01-27T11:47:26;4.50;;;1.60;;
18340;SDS011;9296;48.084;16.352;2024-01-27T11:50:03;6.28;;;1.98;;
18340;SDS011;9296;48.084;16.352;2024-01-27T11:52:34;4.35;;;2.10;;
18340;SDS011;9296;48.084;16.352;2024-01-27T11:55:10;3.45;;;1.70;;
18340;SDS011;9296;48.084;16.352;2024-01-27T11:57:40;4.43;;;2.20;;
18340;SDS011;9296;48.084;16.352;2024-01-27T12:00:21;7.15;;;1.95;;
18340;SDS011;9296;48.084;16.352;2024-01-27T12:02:50;4.60;;;1.85;;
18340;SDS011;9296;48.084;16.352;2024-01-27T12:05:20;4.38;;;1.70;;
18340;SDS011;9296;48.084;16.352;2024-01-27T12:07:47;5.05;;;1.92;;
18340;SDS011;9296;48.084;16.352;2024-01-27T12:10:20;6.13;;;2.05;;
18340;SDS011;9296;48.084;16.352;2024-01-27T12:12:50;5.13;;;2.00;;
18340;SDS011;9296;48.084;16.352;2024-01-27T12:18:25;3.35;;;1.90;;
18340;SDS011;9296;48.084;16.352;2024-01-27T12:20:55;4.50;;;1.75;;
18340;SDS011;9296;48.084;16.352;2024-01-27T12:23:23;4.53;;;2.08;;
18340;SDS011;9296;48.084;16.352;2024-01-27T12:25:54;6.30;;;1.90;;
18340;SDS011;9296;48.084;16.352;2024-01-27T12:28:22;4.82;;;1.80;;
18340;SDS011;9296;48.084;16.352;2024-01-27T12:30:49;3.58;;;1.55;;
18340;SDS011;9296;48.084;16.352;2024-01-27T12:33:21;4.18;;;2.00;;
18340;SDS011;9296;48.084;16.352;2024-01-27T12:35:50;5.10;;;2.20;;
18340;SDS011;9296;48.084;16.352;2024-01-27T12:38:19;5.55;;;1.90;;
18340;SDS011;9296;48.084;16.352;2024-01-27T12:40:48;8.10;;;1.98;;
18340;SDS011;9296;48.084;16.352;2024-01-27T12:43:17;6.35;;;2.15;;
18340;SDS011;9296;48.084;16.352;2024-01-27T12:45:44;9.07;;;2.10;;
18340;SDS011;9296;48.084;16.352;2024-01-27T12:48:14;6.68;;;2.05;;
18340;SDS011;9296;48.084;16.352;2024-01-27T12:50:41;6.03;;;2.13;;
18340;SDS011;9296;48.084;16.352;2024-01-27T12:53:09;5.20;;;1.88;;
18340;SDS011;9296;48.084;16.352;2024-01-27T12:55:36;6.07;;;2.13;;
18340;SDS011;9296;48.084;16.352;2024-01-27T12:58:03;2.83;;;1.60;;
18340;SDS011;9296;48.084;16.352;2024-01-27T13:00:34;5.18;;;2.00;;
18340;SDS011;9296;48.084;16.352;2024-01-27T13:03:05;7.47;;;2.83;;
18340;SDS011;9296;48.084;16.352;2024-01-27T13:05:35;5.30;;;2.20;;
18340;SDS011;9296;48.084;16.352;2024-01-27T13:08:05;6.55;;;2.67;;
18340;SDS011;9296;48.084;16.352;2024-01-27T13:10:33;6.63;;;2.42;;
18340;SDS011;9296;48.084;16.352;2024-01-27T13:13:02;4.70;;;2.10;;
18340;SDS011;9296;48.084;16.352;2024-01-27T13:15:30;4.22;;;1.85;;
18340;SDS011;9296;48.084;16.352;2024-01-27T13:17:58;6.15;;;1.80;;
18340;SDS011;9296;48.084;16.352;2024-01-27T13:20:25;7.95;;;2.00;;
18340;SDS011;9296;48.084;16.352;2024-01-27T13:22:52;4.30;;;1.65;;
18340;SDS011;9296;48.084;16.352;2024-01-27T13:25:20;5.70;;;1.65;;
18340;SDS011;9296;48.084;16.352;2024-01-27T13:27:48;5.63;;;1.92;;
18340;SDS011;9296;48.084;16.352;2024-01-27T13:30:18;3.55;;;1.70;;
18340;SDS011;9296;48.084;16.352;2024-01-27T13:32:45;5.88;;;1.75;;
18340;SDS011;9296;48.084;16.352;2024-01-27T13:35:14;4.88;;;1.50;;
18340;SDS011;9296;48.084;16.352;2024-01-27T13:37:41;4.68;;;1.75;;
18340;SDS011;9296;48.084;16.352;2024-01-27T13:40:08;5.13;;;1.70;;
18340;SDS011;9296;48.084;16.352;2024-01-27T13:42:36;5.25;;;1.75;;
18340;SDS011;9296;48.084;16.352;2024-01-27T13:48:07;5.55;;;1.77;;
18340;SDS011;9296;48.084;16.352;2024-01-27T13:53:18;3.63;;;1.80;;
18340;SDS011;9296;48.084;16.352;2024-01-27T13:55:47;4.35;;;1.60;;
18340;SDS011;9296;48.084;16.352;2024-01-27T13:58:15;4.38;;;1.80;;
18340;SDS011;9296;48.084;16.352;2024-01-27T14:00:47;4.22;;;1.80;;
18340;SDS011;9296;48.084;16.352;2024-01-27T14:03:14;3.55;;;1.63;;
18340;SDS011;9296;48.084;16.352;2024-01-27T14:05:42;4.32;;;1.55;;
18340;SDS011;9296;48.084;16.352;2024-01-27T14:08:11;4.53;;;1.75;;
18340;SDS011;9296;48.084;16.352;2024-01-27T14:10:40;6.80;;;1.50;;
18340;SDS011;9296;48.084;16.352;2024-01-27T14:13:08;5.72;;;1.60;;
18340;SDS011;9296;48.084;16.352;2024-01-27T14:18:38;2.47;;;1.20;;
18340;SDS011;9296;48.084;16.352;2024-01-27T14:21:07;3.75;;;1.88;;
18340;SDS011;9296;48.084;16.352;2024-01-27T14:23:34;7.10;;;1.45;;
18340;SDS011;9296;48.084;16.352;2024-01-27T14:26:04;4.55;;;1.85;;
18340;SDS011;9296;48.084;16.352;2024-01-27T14:31:16;3.88;;;1.83;;
18340;SDS011;9296;48.084;16.352;2024-01-27T14:36:15;4.57;;;1.40;;
18340;SDS011;9296;48.084;16.352;2024-01-27T14:38:42;3.95;;;1.60;;
18340;SDS011;9296;48.084;16.352;2024-01-27T14:41:18;3.55;;;1.58;;
18340;SDS011;9296;48.084;16.352;2024-01-27T14:43:46;4.35;;;1.42;;
18340;SDS011;9296;48.084;16.352;2024-01-27T14:46:21;6.25;;;1.50;;
18340;SDS011;9296;48.084;16.352;2024-01-27T14:48:55;2.58;;;1.30;;
18340;SDS011;9296;48.084;16.352;2024-01-27T14:51:22;3.05;;;1.70;;
18340;SDS011;9296;48.084;16.352;2024-01-27T14:53:51;5.35;;;1.88;;
18340;SDS011;9296;48.084;16.352;2024-01-27T14:56:20;4.38;;;1.40;;
18340;SDS011;9296;48.084;16.352;2024-01-27T15:01:22;5.55;;;1.55;;
18340;SDS011;9296;48.084;16.352;2024-01-27T15:03:49;6.68;;;2.05;;
18340;SDS011;9296;48.084;16.352;2024-01-27T15:06:17;3.20;;;1.50;;
18340;SDS011;9296;48.084;16.352;2024-01-27T15:08:48;4.57;;;1.80;;
18340;SDS011;9296;48.084;16.352;2024-01-27T15:11:15;6.03;;;1.90;;
18340;SDS011;9296;48.084;16.352;2024-01-27T15:13:44;5.97;;;1.88;;
18340;SDS011;9296;48.084;16.352;2024-01-27T15:16:11;4.60;;;1.88;;
18340;SDS011;9296;48.084;16.352;2024-01-27T15:18:38;6.03;;;1.63;;
18340;SDS011;9296;48.084;16.352;2024-01-27T15:21:09;4.65;;;1.90;;
18340;SDS011;9296;48.084;16.352;2024-01-27T15:23:37;5.50;;;1.80;;
18340;SDS011;9296;48.084;16.352;2024-01-27T15:26:17;5.63;;;1.70;;
18340;SDS011;9296;48.084;16.352;2024-01-27T15:34:10;4.25;;;1.65;;
18340;SDS011;9296;48.084;16.352;2024-01-27T15:36:51;4.97;;;1.85;;
18340;SDS011;9296;48.084;16.352;2024-01-27T15:39:19;4.50;;;1.48;;
18340;SDS011;9296;48.084;16.352;2024-01-27T15:41:46;6.28;;;2.05;;
18340;SDS011;9296;48.084;16.352;2024-01-27T15:44:13;4.50;;;2.00;;
18340;SDS011;9296;48.084;16.352;2024-01-27T15:46:40;5.35;;;1.80;;
18340;SDS011;9296;48.084;16.352;2024-01-27T15:49:08;7.43;;;2.53;;
18340;SDS011;9296;48.084;16.352;2024-01-27T15:51:40;9.52;;;2.10;;
18340;SDS011;9296;48.084;16.352;2024-01-27T15:54:12;4.07;;;2.00;;
18340;SDS011;9296;48.084;16.352;2024-01-27T15:56:43;5.85;;;2.08;;
18340;SDS011;9296;48.084;16.352;2024-01-27T15:59:12;7.05;;;2.10;;
18340;SDS011;9296;48.084;16.352;2024-01-27T16:01:53;4.72;;;1.90;;
18340;SDS011;9296;48.084;16.352;2024-01-27T16:04:25;7.25;;;2.30;;
18340;SDS011;9296;48.084;16.352;2024-01-27T16:07:06;4.75;;;1.85;;
18340;SDS011;9296;48.084;16.352;2024-01-27T16:12:00;4.55;;;2.08;;
18340;SDS011;9296;48.084;16.352;2024-01-27T16:14:27;4.57;;;1.90;;
18340;SDS011;9296;48.084;16.352;2024-01-27T16:17:03;6.72;;;1.80;;
18340;SDS011;9296;48.084;16.352;2024-01-27T16:19:44;6.03;;;2.00;;
18340;SDS011;9296;48.084;16.352;2024-01-27T16:22:12;5.95;;;2.42;;
18340;SDS011;9296;48.084;16.352;2024-01-27T16:24:41;6.30;;;2.10;;
18340;SDS011;9296;48.084;16.352;2024-01-27T16:27:11;5.93;;;2.20;;
18340;SDS011;9296;48.084;16.352;2024-01-27T16:29:38;4.18;;;1.98;;
18340;SDS011;9296;48.084;16.352;2024-01-27T16:35:09;4.95;;;2.00;;
18340;SDS011;9296;48.084;16.352;2024-01-27T16:40:10;4.45;;;1.92;;
18340;SDS011;9296;48.084;16.352;2024-01-27T16:42:37;5.95;;;2.10;;
18340;SDS011;9296;48.084;16.352;2024-01-27T16:45:07;6.13;;;1.95;;
18340;SDS011;9296;48.084;16.352;2024-01-27T16:48:16;7.75;;;2.25;;
18340;SDS011;9296;48.084;16.352;2024-01-27T16:51:00;6.25;;;1.65;;
18340;SDS011;9296;48.084;16.352;2024-01-27T16:53:54;5.47;;;2.10;;
18340;SDS011;9296;48.084;16.352;2024-01-27T16:56:57;4.93;;;1.83;;
18340;SDS011;9296;48.084;16.352;2024-01-27T16:59:29;4.63;;;1.98;;
18340;SDS011;9296;48.084;16.352;2024-01-27T17:05:09;6.60;;;2.00;;
18340;SDS011;9296;48.084;16.352;2024-01-27T17:07:45;7.53;;;2.42;;
18340;SDS011;9296;48.084;16.352;2024-01-27T17:10:35;6.93;;;2.08;;
18340;SDS011;9296;48.084;16.352;2024-01-27T17:28:22;8.70;;;2.38;;
18340;SDS011;9296;48.084;16.352;2024-01-27T17:31:06;5.40;;;2.42;;
18340;SDS011;9296;48.084;16.352;2024-01-27T17:33:34;6.45;;;2.70;;
18340;SDS011;9296;48.084;16.352;2024-01-27T17:36:10;8.45;;;2.83;;
18340;SDS011;9296;48.084;16.352;2024-01-27T17:41:14;10.02;;;2.42;;
18340;SDS011;9296;48.084;16.352;2024-01-27T17:51:39;5.85;;;2.10;;
18340;SDS011;9296;48.084;16.352;2024-01-27T18:01:44;7.22;;;2.25;;
18340;SDS011;9296;48.084;16.352;2024-01-27T18:04:12;7.93;;;2.03;;
18340;SDS011;9296;48.084;16.352;2024-01-27T18:06:52;6.40;;;1.90;;
18340;SDS011;9296;48.084;16.352;2024-01-27T18:09:29;6.05;;;2.00;;
18340;SDS011;9296;48.084;16.352;2024-01-27T18:12:06;5.30;;;1.85;;
18340;SDS011;9296;48.084;16.352;2024-01-27T18:14:34;7.43;;;2.20;;
18340;SDS011;9296;48.084;16.352;2024-01-27T18:20:18;5.70;;;1.85;;
18340;SDS011;9296;48.084;16.352;2024-01-27T18:22:47;7.32;;;2.08;;
18340;SDS011;9296;48.084;16.352;2024-01-27T18:25:14;6.43;;;2.33;;
18340;SDS011;9296;48.084;16.352;2024-01-27T18:27:42;3.53;;;1.98;;
18340;SDS011;9296;48.084;16.352;2024-01-27T18:30:09;11.07;;;2.33;;
18340;SDS011;9296;48.084;16.352;2024-01-27T18:32:43;8.52;;;2.25;;
18340;SDS011;9296;48.084;16.352;2024-01-27T18:35:10;5.03;;;2.33;;
18340;SDS011;9296;48.084;16.352;2024-01-27T18:37:38;6.88;;;2.00;;
18340;SDS011;9296;48.084;16.352;2024-01-27T18:40:10;6.57;;;2.15;;
18340;SDS011;9296;48.084;16.352;2024-01-27T18:42:38;8.23;;;2.10;;
18340;SDS011;9296;48.084;16.352;2024-01-27T18:45:06;8.43;;;2.30;;
18340;SDS011;9296;48.084;16.352;2024-01-27T18:47:34;7.32;;;2.15;;
18340;SDS011;9296;48.084;16.352;2024-01-27T18:50:16;4.10;;;1.90;;
18340;SDS011;9296;48.084;16.352;2024-01-27T18:52:45;5.82;;;1.88;;
18340;SDS011;9296;48.084;16.352;2024-01-27T19:00:48;6.95;;;2.08;;
18340;SDS011;9296;48.084;16.352;2024-01-27T19:03:16;5.38;;;2.30;;
18340;SDS011;9296;48.084;16.352;2024-01-27T19:05:44;8.40;;;2.10;;
18340;SDS011;9296;48.084;16.352;2024-01-27T19:08:11;4.63;;;1.83;;
18340;SDS011;9296;48.084;16.352;2024-01-27T19:10:40;4.22;;;1.80;;
18340;SDS011;9296;48.084;16.352;2024-01-27T19:13:10;5.50;;;2.08;;
18340;SDS011;9296;48.084;16.352;2024-01-27T19:15:52;3.53;;;1.90;;
18340;SDS011;9296;48.084;16.352;2024-01-27T19:18:22;9.48;;;2.10;;
18340;SDS011;9296;48.084;16.352;2024-01-27T19:20:49;7.43;;;1.70;;
18340;SDS011;9296;48.084;16.352;2024-01-27T19:23:17;6.25;;;1.88;;
18340;SDS011;9296;48.084;16.352;2024-01-27T19:25:45;4.85;;;1.90;;
18340;SDS011;9296;48.084;16.352;2024-01-27T19:28:12;6.35;;;1.70;;
18340;SDS011;9296;48.084;16.352;2024-01-27T19:30:40;9.05;;;1.95;;
18340;SDS011;9296;48.084;16.352;2024-01-27T19:33:08;5.53;;;1.73;;
18340;SDS011;9296;48.084;16.352;2024-01-27T19:35:36;7.75;;;1.80;;
18340;SDS011;9296;48.084;16.352;2024-01-27T19:38:03;7.43;;;1.80;;
18340;SDS011;9296;48.084;16.352;2024-01-27T19:40:31;5.40;;;1.90;;
18340;SDS011;9296;48.084;16.352;2024-01-27T19:42:59;7.18;;;1.90;;
18340;SDS011;9296;48.084;16.352;2024-01-27T19:45:27;8.70;;;1.85;;
18340;SDS011;9296;48.084;16.352;2024-01-27T19:51:00;6.57;;;1.88;;
18340;SDS011;9296;48.084;16.352;2024-01-27T19:53:31;4.07;;;1.35;;
18340;SDS011;9296;48.084;16.352;2024-01-27T19:55:58;7.18;;;1.90;;
18340;SDS011;9296;48.084;16.352;2024-01-27T19:58:25;5.78;;;1.70;;
18340;SDS011;9296;48.084;16.352;2024-01-27T20:00:52;7.00;;;1.70;;
18340;SDS011;9296;48.084;16.352;2024-01-27T20:03:20;7.25;;;1.70;;
18340;SDS011;9296;48.084;16.352;2024-01-27T20:06:09;6.05;;;2.08;;
18340;SDS011;9296;48.084;16.352;2024-01-27T20:08:36;7.40;;;2.00;;
18340;SDS011;9296;48.084;16.352;2024-01-27T20:11:05;7.60;;;2.33;;
18340;SDS011;9296;48.084;16.352;2024-01-27T20:13:49;6.07;;;1.90;;
18340;SDS011;9296;48.084;16.352;2024-01-27T20:16:30;4.28;;;1.48;;
18340;SDS011;9296;48.084;16.352;2024-01-27T20:18:58;8.00;;;2.33;;
18340;SDS011;9296;48.084;16.352;2024-01-27T20:21:30;6.43;;;2.10;;
18340;SDS011;9296;48.084;16.352;2024-01-27T20:24:03;4.60;;;1.70;;
18340;SDS011;9296;48.084;16.352;2024-01-27T20:26:31;8.07;;;2.00;;
18340;SDS011;9296;48.084;16.352;2024-01-27T20:28:58;7.18;;;1.75;;
18340;SDS011;9296;48.084;16.352;2024-01-27T20:34:30;6.88;;;1.80;;
18340;SDS011;9296;48.084;16.352;2024-01-27T20:37:01;5.40;;;1.83;;
18340;SDS011;9296;48.084;16.352;2024-01-27T20:39:29;5.93;;;1.52;;
18340;SDS011;9296;48.084;16.352;2024-01-27T20:41:57;6.45;;;1.92;;
18340;SDS011;9296;48.084;16.352;2024-01-27T20:44:24;4.32;;;2.28;;
18340;SDS011;9296;48.084;16.352;2024-01-27T20:47:10;5.85;;;1.83;;
18340;SDS011;9296;48.084;16.352;2024-01-27T20:49:38;6.90;;;2.13;;
18340;SDS011;9296;48.084;16.352;2024-01-27T20:52:07;4.32;;;1.48;;
18340;SDS011;9296;48.084;16.352;2024-01-27T20:54:35;7.85;;;1.92;;
18340;SDS011;9296;48.084;16.352;2024-01-27T20:57:02;8.13;;;1.88;;
18340;SDS011;9296;48.084;16.352;2024-01-27T20:59:30;8.13;;;1.85;;
18340;SDS011;9296;48.084;16.352;2024-01-27T21:01:58;4.97;;;1.80;;
18340;SDS011;9296;48.084;16.352;2024-01-27T21:04:27;6.55;;;1.88;;
18340;SDS011;9296;48.084;16.352;2024-01-27T21:06:54;7.45;;;1.90;;
18340;SDS011;9296;48.084;16.352;2024-01-27T21:09:24;4.85;;;1.80;;
18340;SDS011;9296;48.084;16.352;2024-01-27T21:12:06;6.88;;;1.77;;
18340;SDS011;9296;48.084;16.352;2024-01-27T21:14:33;7.30;;;1.90;;
18340;SDS011;9296;48.084;16.352;2024-01-27T21:17:28;7.90;;;1.90;;
18340;SDS011;9296;48.084;16.352;2024-01-27T21:19:55;5.75;;;2.15;;
18340;SDS011;9296;48.084;16.352;2024-01-27T21:22:23;6.07;;;1.42;;
18340;SDS011;9296;48.084;16.352;2024-01-27T21:24:55;5.28;;;1.83;;
18340;SDS011;9296;48.084;16.352;2024-01-27T21:27:30;4.90;;;1.35;;
18340;SDS011;9296;48.084;16.352;2024-01-27T21:29:58;3.85;;;1.38;;
18340;SDS011;9296;48.084;16.352;2024-01-27T21:32:27;8.07;;;2.22;;
18340;SDS011;9296;48.084;16.352;2024-01-27T21:34:55;5.85;;;1.60;;
18340;SDS011;9296;48.084;16.352;2024-01-27T21:37:23;4.82;;;1.88;;
18340;SDS011;9296;48.084;16.352;2024-01-27T21:39:52;9.07;;;2.00;;
18340;SDS011;9296;48.084;16.352;2024-01-27T21:42:20;6.15;;;1.88;;
18340;SDS011;9296;48.084;16.352;2024-01-27T21:44:47;10.52;;;2.20;;
18340;SDS011;9296;48.084;16.352;2024-01-27T21:53:43;4.53;;;1.65;;
18340;SDS011;9296;48.084;16.352;2024-01-27T21:56:12;4.50;;;1.80;;
18340;SDS011;9296;48.084;16.352;2024-01-27T21:58:40;8.18;;;1.98;;
18340;SDS011;9296;48.084;16.352;2024-01-27T22:01:08;5.68;;;1.80;;
18340;SDS011;9296;48.084;16.352;2024-01-27T22:03:38;7.75;;;2.05;;
18340;SDS011;9296;48.084;16.352;2024-01-27T22:06:18;8.80;;;1.90;;
18340;SDS011;9296;48.084;16.352;2024-01-27T22:08:46;5.00;;;2.08;;
18340;SDS011;9296;48.084;16.352;2024-01-27T22:11:15;7.78;;;2.17;;
18340;SDS011;9296;48.084;16.352;2024-01-27T22:13:44;5.28;;;1.88;;
18340;SDS011;9296;48.084;16.352;2024-01-27T22:16:13;4.20;;;1.58;;
18340;SDS011;9296;48.084;16.352;2024-01-27T22:19:04;4.90;;;1.73;;
18340;SDS011;9296;48.084;16.352;2024-01-27T22:21:42;5.43;;;1.70;;
18340;SDS011;9296;48.084;16.352;2024-01-27T22:24:23;7.03;;;1.90;;
18340;SDS011;9296;48.084;16.352;2024-01-27T22:29:36;7.20;;;2.00;;
18340;SDS011;9296;48.084;16.352;2024-01-27T22:32:06;6.32;;;1.67;;
18340;SDS011;9296;48.084;16.352;2024-01-27T22:34:34;6.97;;;1.80;;
18340;SDS011;9296;48.084;16.352;2024-01-27T22:37:15;7.20;;;1.95;;
18340;SDS011;9296;48.084;16.352;2024-01-27T22:39:45;10.32;;;1.95;;
18340;SDS011;9296;48.084;16.352;2024-01-27T22:42:31;6.95;;;1.83;;
18340;SDS011;9296;48.084;16.352;2024-01-27T22:45:01;9.18;;;2.13;;
18340;SDS011;9296;48.084;16.352;2024-01-27T22:47:55;3.55;;;1.38;;
18340;SDS011;9296;48.084;16.352;2024-01-27T22:50:39;6.57;;;2.40;;
18340;SDS011;9296;48.084;16.352;2024-01-27T22:58:29;4.82;;;1.88;;
18340;SDS011;9296;48.084;16.352;2024-01-27T23:01:29;7.20;;;2.00;;
18340;SDS011;9296;48.084;16.352;2024-01-27T23:04:10;9.02;;;1.98;;
18340;SDS011;9296;48.084;16.352;2024-01-27T23:06:46;5.40;;;2.05;;
18340;SDS011;9296;48.084;16.352;2024-01-27T23:09:36;3.42;;;1.70;;
18340;SDS011;9296;48.084;16.352;2024-01-27T23:12:11;5.25;;;1.88;;
18340;SDS011;9296;48.084;16.352;2024-01-27T23:14:39;4.53;;;2.10;;
18340;SDS011;9296;48.084;16.352;2024-01-27T23:29:01;7.82;;;2.00;;
18340;SDS011;9296;48.084;16.352;2024-01-27T23:35:07;5.50;;;2.10;;
18340;SDS011;9296;48.084;16.352;2024-01-27T23:37:59;6.60;;;2.70;;
18340;SDS011;9296;48.084;16.352;2024-01-27T23:40:41;8.23;;;2.17;;
18340;SDS011;9296;48.084;16.352;2024-01-27T23:43:23;7.90;;;2.35;;
